createdAt,value
2022-10-18T00:00:46.233Z,5.25
2022-10-18T00:03:15.493Z,5.53
2022-10-18T00:05:46.464Z,5.38
2022-10-18T00:08:16.484Z,6.53
2022-10-18T00:10:45.243Z,5.97
2022-10-18T00:13:17.294Z,5.80
2022-10-18T00:15:51.254Z,5.30
2022-10-18T00:18:20.455Z,5.85
2022-10-18T00:21:00.316Z,5.47
2022-10-18T00:23:30.304Z,5.85
2022-10-18T00:26:05.034Z,4.88
2022-10-18T00:28:35.045Z,5.65
2022-10-18T00:31:15.157Z,7.70
2022-10-18T00:33:44.424Z,7.45
2022-10-18T00:36:16.593Z,6.78
2022-10-18T00:38:45.794Z,6.57
2022-10-18T00:41:16.074Z,8.10
2022-10-18T00:43:59.916Z,7.10
2022-10-18T00:46:30.753Z,5.13
2022-10-18T00:49:02.004Z,6.82
2022-10-18T00:51:37.635Z,4.80
2022-10-18T00:54:06.654Z,9.13
2022-10-18T00:56:36.076Z,6.47
2022-10-18T00:59:05.003Z,4.30
2022-10-18T01:01:34.076Z,6.25
2022-10-18T01:04:03.064Z,5.72
2022-10-18T01:06:34.203Z,5.32
2022-10-18T01:09:16.384Z,5.55
2022-10-18T01:11:59.864Z,5.80
2022-10-18T01:14:39.844Z,7.20
2022-10-18T01:17:13.554Z,7.32
2022-10-18T01:20:20.224Z,6.70
2022-10-18T01:23:00.743Z,6.13
2022-10-18T01:25:42.103Z,6.28
2022-10-18T01:28:26.709Z,7.00
2022-10-18T01:31:01.524Z,5.82
2022-10-18T01:33:39.714Z,5.75
2022-10-18T01:36:15.813Z,6.25
2022-10-18T01:38:46.554Z,5.80
2022-10-18T01:41:17.423Z,5.80
2022-10-18T01:43:49.599Z,4.93
2022-10-18T01:46:23.403Z,4.70
2022-10-18T01:48:53.576Z,5.43
2022-10-18T01:51:27.613Z,4.80
2022-10-18T01:53:56.367Z,4.88
2022-10-18T01:56:35.684Z,4.95
2022-10-18T01:59:14.889Z,7.13
2022-10-18T02:01:55.383Z,4.63
2022-10-18T02:04:35.554Z,5.47
2022-10-18T02:07:11.303Z,7.07
2022-10-18T02:12:15.045Z,6.35
2022-10-18T02:14:45.466Z,5.22
2022-10-18T02:17:17.664Z,4.28
2022-10-18T02:19:51.303Z,5.03
2022-10-18T02:22:21.804Z,5.15
2022-10-18T02:24:53.157Z,5.05
2022-10-18T02:27:22.115Z,5.82
2022-10-18T02:29:51.614Z,6.50
2022-10-18T02:32:27.777Z,5.88
2022-10-18T02:35:02.273Z,5.10
2022-10-18T02:37:35.493Z,5.30
2022-10-18T02:40:06.554Z,4.85
2022-10-18T02:42:37.223Z,4.55
2022-10-18T02:45:07.690Z,5.25
2022-10-18T02:47:37.795Z,5.55
2022-10-18T02:50:07.216Z,5.32
2022-10-18T02:52:36.105Z,4.93
2022-10-18T02:55:05.366Z,4.78
2022-10-18T02:57:34.340Z,5.20
2022-10-18T03:00:03.266Z,4.38
2022-10-18T03:02:31.864Z,5.32
2022-10-18T03:05:01.969Z,6.65
2022-10-18T03:07:30.823Z,5.13
2022-10-18T03:09:59.774Z,4.53
2022-10-18T03:12:28.804Z,5.45
2022-10-18T03:14:57.427Z,5.03
2022-10-18T03:17:26.054Z,5.90
2022-10-18T03:19:54.654Z,3.95
2022-10-18T03:22:25.576Z,4.80
2022-10-18T03:24:54.384Z,5.05
2022-10-18T03:27:23.144Z,4.60
2022-10-18T03:29:51.725Z,4.80
2022-10-18T03:32:20.464Z,4.10
2022-10-18T03:34:49.006Z,4.32
2022-10-18T03:37:17.774Z,5.35
2022-10-18T03:39:48.046Z,4.80
2022-10-18T03:42:16.556Z,4.88
2022-10-18T03:44:45.084Z,3.97
2022-10-18T03:47:14.545Z,4.20
2022-10-18T03:49:43.125Z,5.05
2022-10-18T03:52:11.766Z,4.80
2022-10-18T03:54:40.445Z,3.92
2022-10-18T03:57:13.655Z,4.03
2022-10-18T03:59:42.304Z,5.07
2022-10-18T04:02:12.294Z,4.90
2022-10-18T04:04:41.014Z,3.92
2022-10-18T04:07:09.766Z,4.88
2022-10-18T04:09:38.344Z,4.50
2022-10-18T04:12:07.344Z,5.47
2022-10-18T04:14:38.567Z,4.43
2022-10-18T04:17:07.066Z,4.65
2022-10-18T04:19:35.764Z,3.97
2022-10-18T04:22:04.674Z,3.63
2022-10-18T04:24:33.264Z,3.80
2022-10-18T04:27:01.901Z,5.85
2022-10-18T04:29:30.555Z,4.15
2022-10-18T04:32:00.904Z,3.90
2022-10-18T04:34:29.622Z,4.70
2022-10-18T04:36:58.415Z,4.05
2022-10-18T04:39:27.044Z,4.30
2022-10-18T04:41:55.705Z,4.15
2022-10-18T04:44:24.354Z,4.45
2022-10-18T04:46:52.955Z,5.70
2022-10-18T04:49:23.054Z,4.93
2022-10-18T04:51:51.666Z,4.55
2022-10-18T04:54:21.860Z,6.63
2022-10-18T04:56:52.624Z,4.93
2022-10-18T04:59:25.974Z,4.15
2022-10-18T05:01:54.964Z,4.90
2022-10-18T05:04:25.157Z,3.75
2022-10-18T05:06:55.764Z,6.10
2022-10-18T05:09:25.006Z,4.50
2022-10-18T05:11:53.584Z,3.97
2022-10-18T05:14:22.235Z,3.55
2022-10-18T05:16:50.844Z,6.93
2022-10-18T05:19:19.784Z,4.28
2022-10-18T05:21:49.924Z,3.90
2022-10-18T05:24:18.494Z,3.45
2022-10-18T05:26:47.244Z,3.72
2022-10-18T05:29:16.448Z,4.57
2022-10-18T05:31:45.186Z,4.15
2022-10-18T05:34:13.724Z,4.80
2022-10-18T05:36:43.965Z,3.58
2022-10-18T05:39:14.042Z,3.90
2022-10-18T05:41:42.605Z,4.93
2022-10-18T05:44:11.615Z,3.45
2022-10-18T05:46:42.725Z,4.45
2022-10-18T05:49:13.010Z,3.95
2022-10-18T05:51:41.637Z,4.30
2022-10-18T05:54:15.395Z,4.50
2022-10-18T05:56:45.520Z,4.05
2022-10-18T05:59:14.209Z,4.60
2022-10-18T06:01:44.239Z,4.65
2022-10-18T06:04:12.939Z,3.78
2022-10-18T06:06:42.030Z,4.13
2022-10-18T06:09:11.443Z,4.28
2022-10-18T06:11:40.017Z,3.33
2022-10-18T06:14:11.251Z,4.00
2022-10-18T06:16:39.943Z,4.38
2022-10-18T06:19:08.469Z,4.97
2022-10-18T06:21:37.039Z,4.07
2022-10-18T06:24:05.809Z,6.05
2022-10-18T06:26:34.391Z,3.95
2022-10-18T06:29:05.395Z,11.35
2022-10-18T06:31:35.992Z,22.20
2022-10-18T06:34:05.080Z,22.50
2022-10-18T06:36:33.670Z,13.85
2022-10-18T06:39:02.931Z,14.65
2022-10-18T06:41:31.530Z,16.20
2022-10-18T06:44:03.729Z,12.80
2022-10-18T06:46:32.230Z,13.60
2022-10-18T06:49:02.110Z,11.57
2022-10-18T06:51:31.386Z,20.88
2022-10-18T06:54:16.889Z,15.00
2022-10-18T06:56:46.552Z,14.90
2022-10-18T06:59:15.590Z,17.23
2022-10-18T07:01:44.806Z,24.90
2022-10-18T07:04:15.289Z,16.77
2022-10-18T07:06:43.860Z,22.27
2022-10-18T07:09:12.440Z,13.20
2022-10-18T07:11:41.109Z,18.73
2022-10-18T07:14:15.350Z,15.20
2022-10-18T07:16:44.821Z,16.52
2022-10-18T07:19:15.486Z,14.05
2022-10-18T07:21:44.010Z,13.60
2022-10-18T07:24:12.599Z,12.45
2022-10-18T07:26:42.674Z,17.08
2022-10-18T07:29:13.460Z,17.08
2022-10-18T07:31:42.369Z,11.13
2022-10-18T07:34:13.459Z,12.48
2022-10-18T07:36:43.640Z,12.02
2022-10-18T07:39:12.159Z,11.90
2022-10-18T07:41:40.751Z,14.80
2022-10-18T07:44:09.559Z,15.07
2022-10-18T07:46:38.109Z,10.30
2022-10-18T07:49:06.701Z,13.90
2022-10-18T07:51:36.309Z,10.25
2022-10-18T07:54:06.849Z,11.52
2022-10-18T07:56:35.909Z,11.05
2022-10-18T07:59:09.834Z,11.82
2022-10-18T08:01:41.134Z,10.32
2022-10-18T08:04:13.977Z,11.48
2022-10-18T08:06:44.879Z,14.35
2022-10-18T08:09:15.419Z,12.52
2022-10-18T08:11:46.208Z,15.02
2022-10-18T08:14:17.061Z,9.32
2022-10-18T08:16:45.819Z,11.35
2022-10-18T08:19:14.979Z,10.95
2022-10-18T08:21:43.489Z,10.57
2022-10-18T08:24:12.009Z,12.65
2022-10-18T08:26:42.132Z,13.10
2022-10-18T08:29:31.679Z,14.57
2022-10-18T08:32:00.950Z,12.18
2022-10-18T08:34:29.689Z,8.88
2022-10-18T08:36:58.280Z,13.80
2022-10-18T08:39:27.481Z,13.75
2022-10-18T08:42:37.089Z,10.43
2022-10-18T08:45:13.016Z,15.63
2022-10-18T08:47:52.379Z,10.23
2022-10-18T08:50:24.089Z,11.10
2022-10-18T08:52:56.070Z,11.23
2022-10-18T08:55:31.462Z,10.90
2022-10-18T08:58:02.178Z,11.50
2022-10-18T09:00:35.815Z,8.27
2022-10-18T09:03:18.172Z,9.65
2022-10-18T09:05:52.038Z,7.18
2022-10-18T09:08:39.530Z,10.30
2022-10-18T09:11:17.880Z,9.93
2022-10-18T09:14:05.143Z,12.77
2022-10-18T09:16:47.499Z,9.35
2022-10-18T09:19:30.510Z,12.93
2022-10-18T09:22:07.474Z,10.40
2022-10-18T09:24:42.319Z,9.90
2022-10-18T09:27:17.810Z,9.05
2022-10-18T09:29:59.018Z,9.73
2022-10-18T09:32:40.669Z,10.30
2022-10-18T09:35:19.169Z,10.43
2022-10-18T09:37:49.089Z,9.95
2022-10-18T09:40:20.942Z,10.80
2022-10-18T09:42:56.249Z,12.32
2022-10-18T09:45:31.230Z,10.25
2022-10-18T09:48:06.795Z,9.15
2022-10-18T09:50:39.839Z,7.65
2022-10-18T09:53:19.262Z,10.98
2022-10-18T09:56:02.382Z,13.27
2022-10-18T09:58:47.956Z,12.15
2022-10-18T10:01:21.655Z,14.35
2022-10-18T10:03:50.354Z,10.73
2022-10-18T10:06:25.569Z,9.90
2022-10-18T10:09:01.581Z,9.80
2022-10-18T10:11:41.690Z,11.00
2022-10-18T10:16:55.230Z,9.07
2022-10-18T10:19:30.360Z,11.35
2022-10-18T10:22:07.589Z,8.80
2022-10-18T10:24:45.112Z,8.18
2022-10-18T10:27:21.270Z,8.43
2022-10-18T10:29:54.138Z,8.93
2022-10-18T10:35:00.529Z,8.60
2022-10-18T10:37:39.533Z,9.25
2022-10-18T10:40:30.450Z,9.07
2022-10-18T10:43:33.100Z,10.23
2022-10-18T10:46:08.339Z,8.90
2022-10-18T10:48:50.018Z,10.48
2022-10-18T10:51:30.400Z,11.23
2022-10-18T10:54:04.785Z,7.00
2022-10-18T10:56:35.319Z,9.55
2022-10-18T10:59:14.996Z,9.48
2022-10-18T11:01:43.974Z,8.88
2022-10-18T11:04:32.040Z,7.65
2022-10-18T11:07:14.644Z,7.32
2022-10-18T11:09:53.269Z,6.72
2022-10-18T11:12:30.645Z,8.05
2022-10-18T11:15:10.246Z,8.70
2022-10-18T11:17:46.485Z,10.52
2022-10-18T11:20:30.884Z,10.35
2022-10-18T11:23:02.509Z,11.20
2022-10-18T11:26:04.051Z,10.13
2022-10-18T11:28:56.859Z,5.43
2022-10-18T11:31:31.400Z,6.53
2022-10-18T11:34:16.339Z,6.63
2022-10-18T11:37:25.952Z,7.57
2022-10-18T11:39:59.179Z,9.05
2022-10-18T11:42:39.700Z,6.63
2022-10-18T11:45:23.077Z,6.80
2022-10-18T11:48:00.159Z,9.40
2022-10-18T11:50:36.440Z,6.43
2022-10-18T11:53:19.159Z,8.45
2022-10-18T11:56:02.419Z,8.10
2022-10-18T11:58:46.020Z,7.57
2022-10-18T12:01:26.121Z,5.90
2022-10-18T12:04:04.490Z,6.20
2022-10-18T12:06:36.804Z,5.63
2022-10-18T12:09:16.179Z,6.85
2022-10-18T12:11:54.875Z,7.85
2022-10-18T12:14:29.213Z,8.32
2022-10-18T12:17:35.939Z,8.48
2022-10-18T12:19:56.031Z,7.40
2022-10-18T12:22:30.012Z,6.68
2022-10-18T12:25:00.159Z,8.13
2022-10-18T12:27:38.070Z,6.70
2022-10-18T12:30:15.749Z,9.75
2022-10-18T12:32:56.488Z,6.47
2022-10-18T12:35:44.059Z,8.45
2022-10-18T12:38:21.329Z,6.50
2022-10-18T12:40:54.399Z,10.27
2022-10-18T12:43:26.379Z,7.00
2022-10-18T12:45:57.599Z,8.32
2022-10-18T12:48:33.420Z,6.78
2022-10-18T12:51:07.489Z,7.47
2022-10-18T12:53:36.860Z,8.00
2022-10-18T12:56:38.314Z,8.32
2022-10-18T12:59:45.209Z,8.48
2022-10-18T13:07:45.049Z,8.82
2022-10-18T13:10:40.389Z,7.93
2022-10-18T13:13:41.913Z,8.80
2022-10-18T13:16:35.510Z,7.53
2022-10-18T13:19:20.248Z,8.30
2022-10-18T13:21:58.289Z,11.02
2022-10-18T13:24:35.479Z,8.63
2022-10-18T13:27:34.857Z,8.00
2022-10-18T13:30:28.799Z,11.93
2022-10-18T13:33:06.609Z,8.77
2022-10-18T13:35:56.269Z,9.35
2022-10-18T13:38:49.739Z,7.57
2022-10-18T13:41:21.013Z,9.07
2022-10-18T13:44:20.349Z,7.93
2022-10-18T13:47:15.929Z,6.15
2022-10-18T13:49:59.292Z,8.87
2022-10-18T13:52:38.783Z,8.20
2022-10-18T13:55:31.089Z,7.47
2022-10-18T13:58:09.341Z,6.93
2022-10-18T14:00:52.557Z,7.70
2022-10-18T14:04:07.230Z,8.68
2022-10-18T14:06:37.949Z,10.63
2022-10-18T14:09:25.522Z,11.65
2022-10-18T14:11:56.949Z,10.60
2022-10-18T14:14:35.331Z,13.77
2022-10-18T14:17:18.049Z,10.90
2022-10-18T14:19:55.302Z,16.73
2022-10-18T14:22:26.802Z,19.05
2022-10-18T14:24:57.089Z,24.73
2022-10-18T14:27:27.560Z,20.58
2022-10-18T14:30:11.389Z,15.07
2022-10-18T14:32:44.159Z,20.83
2022-10-18T14:35:32.115Z,21.02
2022-10-18T14:38:02.266Z,15.90
2022-10-18T14:40:34.830Z,22.20
2022-10-18T14:43:05.400Z,14.98
2022-10-18T14:45:33.829Z,17.30
2022-10-18T14:48:17.239Z,16.33
2022-10-18T14:50:50.821Z,17.45
2022-10-18T14:53:22.260Z,14.35
2022-10-18T14:55:58.050Z,20.50
2022-10-18T14:58:26.670Z,16.42
2022-10-18T15:00:55.648Z,20.08
2022-10-18T15:03:25.169Z,14.63
2022-10-18T15:05:57.920Z,17.20
2022-10-18T15:08:28.482Z,14.95
2022-10-18T15:10:59.530Z,16.52
2022-10-18T15:13:28.469Z,16.80
2022-10-18T15:15:57.484Z,16.73
2022-10-18T15:18:28.262Z,15.68
2022-10-18T15:21:11.899Z,16.42
2022-10-18T15:23:40.380Z,16.48
2022-10-18T15:26:14.019Z,14.80
2022-10-18T15:28:50.505Z,16.00
2022-10-18T15:31:26.039Z,13.20
2022-10-18T15:33:56.119Z,11.85
2022-10-18T15:36:33.369Z,12.77
2022-10-18T15:39:17.659Z,10.77
2022-10-18T15:41:51.344Z,15.90
2022-10-18T15:44:24.600Z,12.07
2022-10-18T15:46:54.739Z,12.63
2022-10-18T15:49:55.590Z,11.90
2022-10-18T15:52:39.336Z,13.90
2022-10-18T15:55:50.909Z,14.90
2022-10-18T15:58:22.934Z,11.32
2022-10-18T16:00:52.699Z,14.27
2022-10-18T16:03:24.178Z,11.10
2022-10-18T16:05:57.562Z,11.25
2022-10-18T16:08:30.731Z,12.15
2022-10-18T16:11:00.226Z,9.45
2022-10-18T16:13:29.248Z,9.55
2022-10-18T16:15:59.733Z,12.85
2022-10-18T16:18:28.824Z,17.63
2022-10-18T16:20:58.099Z,10.02
2022-10-18T16:23:29.866Z,11.77
2022-10-18T16:25:59.020Z,11.25
2022-10-18T16:28:28.389Z,10.02
2022-10-18T16:30:59.074Z,12.23
2022-10-18T16:33:28.339Z,9.10
2022-10-18T16:35:56.910Z,11.57
2022-10-18T16:38:34.265Z,11.00
2022-10-18T16:41:04.901Z,9.52
2022-10-18T16:43:34.971Z,11.45
2022-10-18T16:46:04.909Z,9.98
2022-10-18T16:48:33.890Z,12.18
2022-10-18T16:51:05.731Z,9.75
2022-10-18T16:53:35.757Z,10.85
2022-10-18T16:56:07.681Z,9.70
2022-10-18T16:58:36.249Z,10.90
2022-10-18T17:01:08.022Z,9.95
2022-10-18T17:03:37.708Z,12.70
2022-10-18T17:06:07.980Z,12.35
2022-10-18T17:08:38.849Z,9.00
2022-10-18T17:11:07.589Z,11.23
2022-10-18T17:13:36.180Z,9.15
2022-10-18T17:16:05.719Z,11.75
2022-10-18T17:18:34.399Z,10.75
2022-10-18T17:21:03.430Z,10.38
2022-10-18T17:23:32.481Z,16.23
2022-10-18T17:26:21.933Z,12.30
2022-10-18T17:28:52.778Z,8.90
2022-10-18T17:31:21.479Z,9.32
2022-10-18T17:33:50.470Z,10.27
2022-10-18T17:36:19.260Z,11.93
2022-10-18T17:38:48.605Z,9.02
2022-10-18T17:41:18.759Z,10.07
2022-10-18T17:43:48.514Z,10.02
2022-10-18T17:46:18.192Z,8.98
2022-10-18T17:48:47.389Z,8.50
2022-10-18T17:51:18.754Z,8.63
2022-10-18T17:53:47.511Z,10.48
2022-10-18T17:56:18.435Z,8.43
2022-10-18T17:58:47.460Z,10.57
2022-10-18T18:01:18.302Z,10.93
2022-10-18T18:03:48.119Z,10.90
2022-10-18T18:06:18.869Z,8.50
2022-10-18T18:08:48.299Z,9.80
2022-10-18T18:11:19.480Z,9.60
2022-10-18T18:13:48.189Z,9.13
2022-10-18T18:16:18.779Z,14.02
2022-10-18T18:18:48.629Z,12.13
2022-10-18T18:21:17.710Z,8.55
2022-10-18T18:23:46.399Z,9.77
2022-10-18T18:26:15.049Z,9.18
2022-10-18T18:28:49.620Z,10.18
2022-10-18T18:31:23.730Z,8.35
2022-10-18T18:33:53.700Z,15.25
2022-10-18T18:36:23.459Z,11.43
2022-10-18T18:38:56.840Z,30.50
2022-10-18T18:41:27.560Z,18.13
2022-10-18T18:43:59.521Z,15.93
2022-10-18T18:46:30.899Z,17.60
2022-10-18T18:49:00.145Z,17.35
2022-10-18T18:51:28.849Z,16.10
2022-10-18T18:53:57.439Z,20.73
2022-10-18T18:56:29.289Z,16.35
2022-10-18T18:59:00.580Z,17.25
2022-10-18T19:01:31.411Z,17.88
2022-10-18T19:04:01.245Z,16.17
2022-10-18T19:06:31.900Z,16.30
2022-10-18T19:09:05.404Z,16.23
2022-10-18T19:11:36.759Z,13.88
2022-10-18T19:14:07.764Z,15.77
2022-10-18T19:16:38.094Z,14.55
2022-10-18T19:19:08.252Z,13.02
2022-10-18T19:21:41.043Z,19.80
2022-10-18T19:24:10.018Z,11.75
2022-10-18T19:26:45.290Z,13.50
2022-10-18T19:29:18.319Z,11.93
2022-10-18T19:31:50.211Z,12.35
2022-10-18T19:34:20.461Z,14.45
2022-10-18T19:36:50.509Z,12.25
2022-10-18T19:39:23.252Z,11.75
2022-10-18T19:41:55.514Z,12.90
2022-10-18T19:44:27.680Z,11.57
2022-10-18T19:46:56.489Z,13.40
2022-10-18T19:49:25.150Z,13.90
2022-10-18T19:51:59.739Z,10.60
2022-10-18T19:54:29.139Z,15.38
2022-10-18T19:56:57.914Z,10.70
2022-10-18T19:59:28.161Z,15.23
2022-10-18T20:01:57.101Z,11.63
2022-10-18T20:04:26.119Z,11.63
2022-10-18T20:06:54.850Z,17.02
2022-10-18T20:09:33.982Z,13.20
2022-10-18T20:12:02.680Z,12.05
2022-10-18T20:14:33.520Z,10.65
2022-10-18T20:17:02.160Z,11.13
2022-10-18T20:19:33.250Z,11.02
2022-10-18T20:22:01.869Z,11.93
2022-10-18T20:24:30.730Z,10.77
2022-10-18T20:26:59.470Z,10.82
2022-10-18T20:29:28.390Z,10.38
2022-10-18T20:31:58.550Z,10.35
2022-10-18T20:34:28.809Z,13.05
2022-10-18T20:36:57.439Z,9.82
2022-10-18T20:39:26.364Z,11.18
2022-10-18T20:41:54.979Z,8.50
2022-10-18T20:44:25.605Z,8.07
2022-10-18T20:46:54.431Z,9.07
2022-10-18T20:49:24.479Z,9.88
2022-10-18T20:51:53.159Z,11.93
2022-10-18T20:54:21.800Z,9.25
2022-10-18T20:56:51.279Z,9.93
2022-10-18T20:59:20.000Z,29.13
2022-10-18T21:01:49.190Z,26.13
2022-10-18T21:04:17.819Z,16.42
2022-10-18T21:06:47.799Z,16.40
2022-10-18T21:09:18.654Z,15.50
2022-10-18T21:11:52.532Z,14.18
2022-10-18T21:14:22.839Z,13.55
2022-10-18T21:16:53.279Z,16.40
2022-10-18T21:19:23.939Z,12.60
2022-10-18T21:21:56.114Z,13.65
2022-10-18T21:24:26.376Z,11.50
2022-10-18T21:26:56.029Z,9.95
2022-10-18T21:29:27.279Z,11.77
2022-10-18T21:31:59.511Z,11.68
2022-10-18T21:34:28.476Z,10.75
2022-10-18T21:36:58.404Z,10.18
2022-10-18T21:39:27.155Z,11.00
2022-10-18T21:41:55.879Z,10.75
2022-10-18T21:44:24.719Z,10.45
2022-10-18T21:46:53.240Z,11.05
2022-10-18T21:49:25.217Z,11.13
2022-10-18T21:51:53.820Z,11.10
2022-10-18T21:54:24.949Z,14.52
2022-10-18T21:56:53.464Z,10.60
2022-10-18T21:59:22.114Z,14.43
2022-10-18T22:01:50.599Z,11.57
2022-10-18T22:04:27.061Z,11.15
2022-10-18T22:06:55.559Z,17.35
2022-10-18T22:09:26.355Z,9.88
2022-10-18T22:12:01.314Z,12.88
2022-10-18T22:14:30.109Z,14.30
2022-10-18T22:16:58.689Z,10.20
2022-10-18T22:19:27.339Z,11.18
2022-10-18T22:21:56.140Z,12.55
2022-10-18T22:24:26.280Z,12.43
2022-10-18T22:26:58.044Z,9.80
2022-10-18T22:29:26.569Z,10.80
2022-10-18T22:31:55.939Z,9.10
2022-10-18T22:34:27.786Z,11.20
2022-10-18T22:36:59.491Z,8.15
2022-10-18T22:39:29.454Z,9.13
2022-10-18T22:41:57.924Z,10.82
2022-10-18T22:44:26.841Z,9.48
2022-10-18T22:46:55.389Z,10.32
2022-10-18T22:49:23.850Z,9.32
2022-10-18T22:51:52.464Z,8.63
2022-10-18T22:54:21.473Z,9.63
2022-10-18T22:56:51.620Z,9.00
2022-10-18T22:59:20.315Z,8.60
2022-10-18T23:01:48.949Z,8.15
2022-10-18T23:04:17.539Z,9.57
2022-10-18T23:06:46.230Z,9.00
2022-10-18T23:09:15.119Z,9.95
2022-10-18T23:11:43.864Z,8.20
2022-10-18T23:14:16.639Z,9.65
2022-10-18T23:16:45.267Z,7.70
2022-10-18T23:19:16.979Z,9.48
2022-10-18T23:21:45.571Z,8.93
2022-10-18T23:24:14.350Z,8.50
2022-10-18T23:26:42.910Z,8.80
2022-10-18T23:29:11.828Z,9.23
2022-10-18T23:31:44.859Z,8.50
2022-10-18T23:34:13.610Z,9.35
2022-10-18T23:36:42.208Z,7.97
2022-10-18T23:39:11.824Z,8.48
2022-10-18T23:41:40.473Z,8.90
2022-10-18T23:44:11.072Z,7.55
2022-10-18T23:46:39.699Z,8.18
2022-10-18T23:49:09.724Z,10.82
2022-10-18T23:51:38.389Z,8.48
2022-10-18T23:54:06.914Z,8.18
2022-10-18T23:56:35.519Z,8.70
2022-10-18T23:59:04.091Z,7.97
